Time;durP1;ratioP1;P1;durP2;ratioP2;P2;SDS_P1;SDS_P2;PMS_P1;PMS_P2;Temp;Humidity;BMP_temperature;BMP_pressure;BME280_temperature;BME280_humidity;BME280_pressure;Samples;Min_cycle;Max_cycle;Signal;HPM_P1;HPM_P2
2023/05/16 18:39:10;;;;;;;;;;;;;;;13.16;54.50;98124.09;4856415;29;19983;-63
2023/05/16 18:41:35;;;;;;;;;;;;;;;13.04;54.52;98132.03;4859419;29;20020;-63
2023/05/16 18:44:00;;;;;;;;;;;;;;;13.03;54.79;98134.78;4842582;29;20018;-62
2023/05/16 18:46:25;;;;;;;;;;;;;;;13.10;54.61;98141.22;4840559;29;20014;-63
2023/05/16 18:48:51;;;;;;;;;;;;;;;13.09;54.59;98139.56;4855550;29;19926;-65
2023/05/16 18:51:16;;;;;;;;;;;;;;;13.05;54.26;98141.59;4858351;29;20382;-64
2023/05/16 18:53:41;;;;;;;;;;;;;;;13.06;53.53;98138.00;4859481;29;20017;-64
2023/05/16 18:56:06;;;;;;;;;;;;;;;12.90;54.45;98140.16;4860359;29;19924;-64
2023/05/16 18:58:32;;;;;;;;;;;;;;;12.84;54.73;98140.69;4855240;29;19923;-63
2023/05/16 19:00:57;;;;;;;;;;;;;;;12.71;54.59;98146.06;4854850;29;20015;-64
2023/05/16 19:03:22;;;;;;;;;;;;;;;12.68;54.88;98145.47;4859283;29;20004;-64
2023/05/16 19:05:48;;;;;;;;;;;;;;;12.72;56.08;98147.72;4860325;29;20011;-64
2023/05/16 19:08:13;;;;;;;;;;;;;;;12.67;55.08;98154.31;4842438;29;20218;-64
2023/05/16 19:10:40;;;;;;;;;;;;;;;12.66;54.13;98155.25;4833923;29;20878;-63
2023/05/16 19:13:06;;;;;;;;;;;;;;;12.57;54.66;98154.19;4842115;29;19932;-64
2023/05/16 19:15:35;;;;;;;;;;;;;;;12.56;54.20;98163.88;4860103;29;19916;-64
2023/05/16 19:18:00;;;;;;;;;;;;;;;12.40;54.32;98163.38;4843260;29;19920;-64
2023/05/16 19:20:25;;;;;;;;;;;;;;;12.37;54.43;98155.72;4853761;29;19928;-64
2023/05/16 19:22:50;;;;;;;;;;;;;;;12.35;54.50;98154.97;4844075;29;19922;-64
2023/05/16 19:25:16;;;;;;;;;;;;;;;12.23;54.30;98161.19;4856669;29;19926;-65
2023/05/16 19:27:41;;;;;;;;;;;;;;;12.20;54.39;98166.69;4857193;29;19920;-64
2023/05/16 19:30:07;;;;;;;;;;;;;;;12.13;53.90;98176.00;4859645;29;19927;-63
2023/05/16 19:32:32;;;;;;;;;;;;;;;12.10;54.49;98175.25;4842971;29;19928;-63
2023/05/16 19:34:58;;;;;;;;;;;;;;;12.05;54.00;98176.56;4858628;29;19920;-63
2023/05/16 19:37:23;;;;;;;;;;;;;;;12.05;55.23;98180.03;4859075;29;19965;-64
2023/05/16 19:39:48;;;;;;;;;;;;;;;12.10;55.23;98183.16;4854465;29;19971;-64
2023/05/16 19:42:13;;;;;;;;;;;;;;;12.09;55.10;98181.47;4849960;29;20020;-64
2023/05/16 19:44:39;;;;;;;;;;;;;;;12.04;55.23;98194.16;4854332;29;19976;-64
2023/05/16 19:47:04;;;;;;;;;;;;;;;11.98;55.25;98189.34;4853547;29;19984;-64
2023/05/16 19:49:30;;;;;;;;;;;;;;;12.00;56.62;98197.94;4854530;29;19932;-64
2023/05/16 19:51:55;;;;;;;;;;;;;;;11.98;55.88;98197.22;4848616;29;20413;-65
2023/05/16 19:54:20;;;;;;;;;;;;;;;11.96;56.00;98204.38;4850267;29;20414;-65
2023/05/16 19:56:45;;;;;;;;;;;;;;;11.88;55.54;98214.63;4850823;29;20544;-65
2023/05/16 19:59:18;;;;;;;;;;;;;;;11.98;54.43;98207.75;5073474;27;20370;-63
2023/05/16 20:01:43;;;;;;;;;;;;;;;11.90;54.16;98207.44;5069295;28;19920;-63
2023/05/16 20:04:08;;;;;;;;;;;;;;;11.81;54.45;98210.75;5068138;28;19939;-63
2023/05/16 20:06:34;;;;;;;;;;;;;;;11.81;56.03;98216.00;5066496;28;20386;-64
2023/05/16 20:08:59;;;;;;;;;;;;;;;11.77;56.06;98217.19;5066353;28;20400;-64
2023/05/16 20:11:25;;;;;;;;;;;;;;;11.78;56.04;98224.94;5064241;28;20381;-64
2023/05/16 20:13:50;;;;;;;;;;;;;;;11.72;55.65;98229.78;5083208;28;19920;-64
2023/05/16 20:16:18;;;;;;;;;;;;;;;11.62;55.90;98230.44;5064368;28;19920;-64
2023/05/16 20:18:45;;;;;;;;;;;;;;;11.58;54.96;98238.69;5066839;28;19920;-64
2023/05/16 20:21:10;;;;;;;;;;;;;;;11.53;55.25;98238.19;5061565;28;19955;-63
2023/05/16 20:23:38;;;;;;;;;;;;;;;11.45;54.72;98241.34;5067380;28;19959;-64
2023/05/16 20:26:03;;;;;;;;;;;;;;;11.46;55.45;98235.16;5065082;28;19913;-64
2023/05/16 20:28:29;;;;;;;;;;;;;;;11.54;65.00;98238.06;5063545;28;20500;-64
2023/05/16 20:30:55;;;;;;;;;;;;;;;11.63;62.70;98237.41;5064081;28;19917;-64
